Terminal Aerodrome Forecast
Issued by NWS

Home | Current Version | Previous Version | Graphics & Text | Print | Product List | Glossary On
Versions: 1 2 3 4 5 6 7 8 9 10 11 12 13 14 15 16 17 18 19 20 21 22 23
303
FTUS43 KLOT 230520
TAFDPA
TAF
KDPA 230520Z 2306/2406 13004KT P6SM SKC
     FM231300 17008KT P6SM SKC
     FM231800 16011KT P6SM SKC
     FM240100 17007KT P6SM SKC=

USA.gov is the U.S. government's official web portal to all federal, state and local government web resources and services.